CheckWX is a tool to help pilots better visualize weather data.  It is not intended as a substitute for an official pre-flight weather briefing.

18:07:21 UTC

EFJO METAR
Joensuu Airport
Joensuu / Liperi, Finland
Current

17 mins ago

EFJO 171750Z 32011KT 290V350 CAVOK M04/M11 Q1014
Observed
Feb-17 @ 17:50 UTC
Wind
  • 320° at 11 KTS
Visibility
10,000+ meters
Flight Rules
VFR
Cloud Levels
  • Clear skies
Temperature
-4°C / 25°F
Dewpoint
-11°C / 12°F
Humidity
59%
Altimeter
29.94" Hg
Pressure
1013.92 hPa
Previous

47 mins ago

EFJO 171720Z 32009KT 280V350 CAVOK M03/M11 Q1013
Observed
Feb-17 @ 17:20 UTC
Wind
  • 320° at 9 KTS
Visibility
10,000+ meters
Flight Rules
VFR
Cloud Levels
  • Clear skies
Temperature
-3°C / 27°F
Dewpoint
-11°C / 12°F
Humidity
54%
Altimeter
29.91" Hg
Pressure
1012.92 hPa
Previous

1 hour ago

EFJO 171650Z 32011KT CAVOK M03/M11 Q1013
Observed
Feb-17 @ 16:50 UTC
Wind
  • 320° at 11 KTS
Visibility
10,000+ meters
Flight Rules
VFR
Cloud Levels
  • Clear skies
Temperature
-3°C / 27°F
Dewpoint
-11°C / 12°F
Humidity
54%
Altimeter
29.91" Hg
Pressure
1012.92 hPa